Terminal Aerodrome Forecast
Issued by NWS

Home | Current Version | Previous Version | Text Only | Print | Product List | Glossary On
Versions: 1 2 3 4 5 6 7 8 9 10 11 12 13 14 15 16 17 18 19 20 21
000
FTPA31 PHFO 241131
TAFHTO
TAF
PHTO 241131Z 2412/2512 VRB06KT 4SM -SHRA VCTS BKN025CB OVC040
      TEMPO 2412/2413 1SM +SHRA BKN015 OVC025
     FM241500 VRB06KT 5SM -SHRA VCTS SCT025CB BKN035 OVC060
     FM250300 VRB06KT P6SM VCSH FEW020 SCT035 OVC060=

USA.gov is the U.S. government's official web portal to all federal, state and local government web resources and services.